Aviation Digital Data Service (ADDS)

Output produced by METARs form (0639 UTC 27 March 2017)
found at http://www.aviationweather.gov/adds/metars/
 
TAF TLPC 270501Z 2706/2806 12008KT 9999 SCT025
       
TAF TLPL 270501Z 2706/2806 11013KT 9999 SCT025